Time;durP1;ratioP1;P1;durP2;ratioP2;P2;SDS_P1;SDS_P2;PMS_P1;PMS_P2;Temp;Humidity;BMP_temperature;BMP_pressure;BME280_temperature;BME280_humidity;BME280_pressure;Samples;Min_cycle;Max_cycle;Signal;HPM_P1;HPM_P2
2022/04/08 00:01:09;;;;;;;;;;;;;;;14.01;54.34;97700.59;5250238;27;34000;-89
2022/04/08 00:03:39;;;;;;;;;;;;;;;14.20;53.57;97710.75;5250148;27;34273;-87
2022/04/08 00:06:10;;;;;;;;;;;;;;;13.86;54.66;97714.53;5251658;27;33504;-88
2022/04/08 00:08:44;;;;;;;;;;;;;;;13.86;54.58;97714.53;5257509;27;34239;-88
2022/04/08 00:11:16;;;;;;;;;;;;;;;13.97;54.39;97729.56;5249630;27;34251;-87
2022/04/08 00:13:45;;;;;;;;;;;;;;;13.90;54.44;97723.03;5249667;27;33743;-87
2022/04/08 00:16:13;;;;;;;;;;;;;;;13.61;55.35;97728.97;5250778;27;34991;-87
2022/04/08 00:18:46;;;;;;;;;;;;;;;13.77;54.79;97723.72;5251907;27;33609;-87
2022/04/08 00:21:20;;;;;;;;;;;;;;;13.69;55.03;97718.09;5255618;27;33842;-86
2022/04/08 00:23:50;;;;;;;;;;;;;;;13.56;55.16;97725.78;5257964;27;34253;-86
2022/04/08 00:26:20;;;;;;;;;;;;;;;13.65;55.12;97708.78;5255412;27;34229;-89
2022/04/08 00:28:49;;;;;;;;;;;;;;;13.41;55.70;97711.88;5255107;27;33385;-89
2022/04/08 00:31:18;;;;;;;;;;;;;;;13.29;56.11;97702.13;5254813;27;34160;-87
2022/04/08 00:33:46;;;;;;;;;;;;;;;13.36;56.19;97698.28;5251853;27;34499;-88
2022/04/08 00:36:18;;;;;;;;;;;;;;;13.54;55.79;97716.38;5255185;27;33502;-89
2022/04/08 00:38:50;;;;;;;;;;;;;;;13.53;55.92;97725.09;5250432;27;32933;-88
2022/04/08 00:41:26;;;;;;;;;;;;;;;13.30;56.78;97721.19;5250077;27;34871;-89
2022/04/08 00:43:54;;;;;;;;;;;;;;;13.18;57.41;97720.09;5230531;27;32989;-88
2022/04/08 00:46:26;;;;;;;;;;;;;;;13.32;57.18;97721.97;5251067;27;33438;-89
2022/04/08 00:48:54;;;;;;;;;;;;;;;13.26;57.50;97706.63;5253901;27;33175;-88
2022/04/08 00:51:23;;;;;;;;;;;;;;;13.42;56.76;97708.31;5255373;27;34375;-88
2022/04/08 00:53:54;;;;;;;;;;;;;;;13.54;56.70;97729.41;5250265;27;33467;-89
2022/04/08 00:56:23;;;;;;;;;;;;;;;13.59;56.33;97730.81;5249778;27;33247;-88
2022/04/08 00:58:53;;;;;;;;;;;;;;;13.42;56.78;97733.53;5250868;27;33411;-87
2022/04/08 01:01:25;;;;;;;;;;;;;;;13.35;56.98;97724.38;5250432;27;34189;-89
2022/04/08 01:03:57;;;;;;;;;;;;;;;13.33;57.07;97718.41;5256364;27;35230;-87
2022/04/08 01:06:32;;;;;;;;;;;;;;;13.37;56.96;97725.16;5253131;27;33900;-87
2022/04/08 01:09:02;;;;;;;;;;;;;;;13.45;56.68;97726.38;5256472;27;32030;-89
2022/04/08 01:11:31;;;;;;;;;;;;;;;13.32;57.09;97725.41;5254868;27;33961;-88
2022/04/08 01:14:16;;;;;;;;;;;;;;;13.26;57.09;97730.91;5253162;27;33123;-88
2022/04/08 01:16:45;;;;;;;;;;;;;;;13.30;56.78;97739.44;5251077;27;34491;-88
2022/04/08 01:19:14;;;;;;;;;;;;;;;13.23;56.92;97742.31;5255832;27;33261;-89
2022/04/08 01:21:42;;;;;;;;;;;;;;;13.08;57.30;97743.19;5253407;27;34898;-88
2022/04/08 01:24:17;;;;;;;;;;;;;;;12.99;57.47;97743.66;5250244;27;34096;-88
2022/04/08 01:26:47;;;;;;;;;;;;;;;12.85;57.92;97753.97;5250512;27;34767;-88
2022/04/08 01:29:17;;;;;;;;;;;;;;;13.00;57.36;97753.19;5250135;27;33307;-89
2022/04/08 01:31:46;;;;;;;;;;;;;;;12.85;57.82;97756.59;5255726;27;34382;-87
2022/04/08 01:34:18;;;;;;;;;;;;;;;12.83;57.90;97767.09;5254942;27;33737;-87
2022/04/08 01:36:49;;;;;;;;;;;;;;;12.84;58.10;97778.34;5250636;27;34168;-87
2022/04/08 01:39:23;;;;;;;;;;;;;;;12.82;58.29;97779.25;5251513;27;33537;-87
2022/04/08 01:41:53;;;;;;;;;;;;;;;12.87;58.15;97794.62;5249709;27;33768;-86
2022/04/08 01:44:23;;;;;;;;;;;;;;;12.71;58.92;97806.75;5250834;27;34974;-88
2022/04/08 01:46:51;;;;;;;;;;;;;;;12.85;58.50;97806.87;5258511;27;33686;-89
2022/04/08 01:49:20;;;;;;;;;;;;;;;12.71;59.03;97818.00;5250214;27;33304;-88
2022/04/08 01:51:51;;;;;;;;;;;;;;;12.71;58.84;97822.34;5252844;27;34096;-87
2022/04/08 01:54:20;;;;;;;;;;;;;;;12.84;58.05;97828.63;5252349;27;34523;-88
2022/04/08 01:56:53;;;;;;;;;;;;;;;12.74;58.37;97823.03;5253464;27;34080;-87
2022/04/08 01:59:22;;;;;;;;;;;;;;;12.74;58.42;97822.22;5257025;27;33486;-88
2022/04/08 02:01:54;;;;;;;;;;;;;;;12.71;58.54;97815.41;5256988;27;34964;-87
2022/04/08 02:04:35;;;;;;;;;;;;;;;12.98;57.59;97817.50;5251670;27;34237;-88
2022/04/08 02:07:06;;;;;;;;;;;;;;;12.91;57.37;97824.78;5251882;27;34113;-87
2022/04/08 02:09:38;;;;;;;;;;;;;;;12.69;58.03;97830.25;5249058;27;33457;-87
2022/04/08 02:12:16;;;;;;;;;;;;;;;13.03;57.07;97851.91;5250732;27;34206;-89
2022/04/08 02:14:45;;;;;;;;;;;;;;;12.74;57.95;97863.84;5255466;27;33945;-88
2022/04/08 02:17:15;;;;;;;;;;;;;;;12.60;58.58;97864.53;5250867;27;34885;-87
2022/04/08 02:19:43;;;;;;;;;;;;;;;12.52;58.90;97877.09;5250931;27;33035;-87
2022/04/08 02:22:17;;;;;;;;;;;;;;;12.58;58.80;97881.97;5250277;27;34012;-87
2022/04/08 02:24:46;;;;;;;;;;;;;;;12.56;59.04;97858.66;5252138;27;35047;-87
2022/04/08 02:27:16;;;;;;;;;;;;;;;12.64;58.77;97866.06;5256952;27;33497;-88
2022/04/08 02:29:44;;;;;;;;;;;;;;;12.61;58.76;97850.59;5231608;27;32029;-88
2022/04/08 02:32:14;;;;;;;;;;;;;;;12.60;58.86;97841.12;5252784;27;34955;-88
2022/04/08 02:34:44;;;;;;;;;;;;;;;12.65;58.71;97826.13;5251580;27;34316;-88
2022/04/08 02:37:15;;;;;;;;;;;;;;;12.36;59.53;97844.03;5250630;27;33511;-87
2022/04/08 02:39:50;;;;;;;;;;;;;;;12.38;59.23;97850.00;5256999;27;34069;-88
2022/04/08 02:42:23;;;;;;;;;;;;;;;12.41;59.29;97854.22;5257063;27;33138;-89
2022/04/08 02:44:51;;;;;;;;;;;;;;;12.15;60.16;97863.28;5251234;27;35097;-88
2022/04/08 02:47:22;;;;;;;;;;;;;;;12.57;59.07;97870.75;5250490;27;34848;-89
2022/04/08 02:49:53;;;;;;;;;;;;;;;12.57;59.01;97875.09;5250710;27;33350;-89
2022/04/08 02:52:22;;;;;;;;;;;;;;;12.44;59.55;97884.44;5251205;27;34120;-88
2022/04/08 02:54:51;;;;;;;;;;;;;;;12.37;59.91;97894.28;5256403;27;33805;-88
2022/04/08 02:57:21;;;;;;;;;;;;;;;12.40;59.79;97896.75;5250700;27;34723;-87
2022/04/08 02:59:53;;;;;;;;;;;;;;;12.67;59.00;97910.13;5251249;27;33697;-88
2022/04/08 03:02:29;;;;;;;;;;;;;;;12.46;59.60;97922.44;5251041;27;34017;-86
2022/04/08 03:04:59;;;;;;;;;;;;;;;12.94;57.84;97936.53;5250624;27;34592;-88
2022/04/08 03:07:31;;;;;;;;;;;;;;;12.74;58.15;97936.69;5250406;27;33938;-87
2022/04/08 03:09:59;;;;;;;;;;;;;;;12.72;58.58;97930.72;5258469;27;33858;-89
2022/04/08 03:12:30;;;;;;;;;;;;;;;12.72;58.28;97935.94;5251820;27;33605;-89
2022/04/08 03:14:59;;;;;;;;;;;;;;;12.71;58.44;97939.44;5251101;27;34161;-89
2022/04/08 03:17:31;;;;;;;;;;;;;;;12.88;57.81;97942.06;5250847;27;33799;-88
2022/04/08 03:19:59;;;;;;;;;;;;;;;13.09;56.66;97936.66;5250111;27;33408;-87
2022/04/08 03:22:32;;;;;;;;;;;;;;;12.80;57.69;97944.19;5249901;27;33603;-88
2022/04/08 03:25:01;;;;;;;;;;;;;;;13.26;55.69;97946.19;5251736;27;34953;-85
2022/04/08 03:27:32;;;;;;;;;;;;;;;13.19;55.69;97956.94;5251346;27;35231;-87
2022/04/08 03:30:00;;;;;;;;;;;;;;;13.23;55.80;97963.66;5252752;27;33421;-86
2022/04/08 03:32:31;;;;;;;;;;;;;;;13.11;55.95;97961.69;5251016;27;34135;-88
2022/04/08 03:35:01;;;;;;;;;;;;;;;12.63;56.56;97955.44;5251840;27;33885;-87
2022/04/08 03:37:35;;;;;;;;;;;;;;;12.53;57.13;97962.84;5256350;27;35207;-87
2022/04/08 03:40:04;;;;;;;;;;;;;;;12.59;57.10;97974.72;5250924;27;33864;-88
2022/04/08 03:42:41;;;;;;;;;;;;;;;12.73;56.99;97985.31;5250893;27;34129;-86
2022/04/08 03:45:10;;;;;;;;;;;;;;;12.70;57.55;97987.19;5250603;27;34083;-87
2022/04/08 03:47:39;;;;;;;;;;;;;;;12.49;58.34;97999.47;5251796;27;34082;-87
2022/04/08 03:50:08;;;;;;;;;;;;;;;12.52;58.75;98001.94;5256575;27;33367;-87
2022/04/08 03:52:43;;;;;;;;;;;;;;;12.78;58.16;98009.34;5251562;27;33853;-87
2022/04/08 03:55:11;;;;;;;;;;;;;;;12.71;58.65;98017.47;5251373;27;33946;-87
2022/04/08 03:57:44;;;;;;;;;;;;;;;12.79;58.85;98016.22;5251899;27;34618;-87
2022/04/08 04:00:12;;;;;;;;;;;;;;;12.88;59.06;98027.06;5250911;27;33775;-87
2022/04/08 04:02:42;;;;;;;;;;;;;;;12.75;59.69;98025.06;5251406;27;34782;-88
2022/04/08 04:05:11;;;;;;;;;;;;;;;12.73;60.11;98016.53;5255858;27;34160;-87
2022/04/08 04:07:39;;;;;;;;;;;;;;;12.93;59.77;98006.91;5250616;27;34584;-88
2022/04/08 04:10:12;;;;;;;;;;;;;;;12.86;60.22;98018.53;5250457;27;32959;-90
2022/04/08 04:12:46;;;;;;;;;;;;;;;12.87;60.56;98035.81;5252254;27;33895;-87
2022/04/08 04:15:15;;;;;;;;;;;;;;;12.81;60.55;98016.12;5250259;27;34275;-87
2022/04/08 04:17:44;;;;;;;;;;;;;;;12.67;61.25;98032.41;5256296;27;33298;-87
2022/04/08 04:20:13;;;;;;;;;;;;;;;12.60;61.07;98023.22;5250170;27;32719;-86
2022/04/08 04:22:50;;;;;;;;;;;;;;;12.53;59.85;98017.47;5249982;27;34114;-88
2022/04/08 04:25:19;;;;;;;;;;;;;;;12.57;59.52;98021.63;5250229;27;33906;-88
2022/04/08 04:27:53;;;;;;;;;;;;;;;12.52;59.76;98033.16;5250836;27;34521;-88
2022/04/08 04:30:23;;;;;;;;;;;;;;;12.64;59.64;98037.78;5252799;27;33985;-89
2022/04/08 04:32:58;;;;;;;;;;;;;;;12.71;59.07;98031.34;5256454;27;34042;-87
2022/04/08 04:35:29;;;;;;;;;;;;;;;12.81;57.93;98040.41;5249961;27;34018;-87
2022/04/08 04:38:00;;;;;;;;;;;;;;;12.81;56.60;98044.75;5249512;27;33674;-87
2022/04/08 04:40:28;;;;;;;;;;;;;;;12.69;56.88;98051.41;5251948;27;33652;-87
2022/04/08 04:43:02;;;;;;;;;;;;;;;12.52;55.82;98044.41;5252116;27;33723;-89
2022/04/08 04:45:31;;;;;;;;;;;;;;;12.38;55.17;98055.44;5254496;27;34884;-89
2022/04/08 04:48:04;;;;;;;;;;;;;;;12.65;53.39;98052.44;5255997;27;34177;-87
2022/04/08 04:50:35;;;;;;;;;;;;;;;12.69;53.51;98054.00;5252305;27;33789;-88
2022/04/08 04:53:07;;;;;;;;;;;;;;;12.75;52.62;98058.91;5253833;27;34480;-88
2022/04/08 04:55:36;;;;;;;;;;;;;;;12.72;49.65;98066.84;5254905;27;34150;-88
2022/04/08 04:58:06;;;;;;;;;;;;;;;12.65;48.69;98095.84;5250184;27;34582;-88
2022/04/08 05:00:35;;;;;;;;;;;;;;;12.80;47.78;98088.13;5256025;27;33422;-88
2022/04/08 05:03:06;;;;;;;;;;;;;;;12.80;48.18;98095.09;5250004;27;33389;-90
2022/04/08 05:05:42;;;;;;;;;;;;;;;12.84;46.40;98091.44;5249322;27;34375;-88
2022/04/08 05:08:11;;;;;;;;;;;;;;;12.90;46.44;98092.91;5221047;27;822881;-89
2022/04/08 05:13:14;;;;;;;;;;;;;;;12.89;46.16;98093.84;5250915;27;33834;-87
2022/04/08 05:15:45;;;;;;;;;;;;;;;12.77;46.14;98090.06;5256897;27;34547;-89
2022/04/08 05:18:13;;;;;;;;;;;;;;;12.93;47.03;98084.97;5250981;27;33786;-87
2022/04/08 05:20:43;;;;;;;;;;;;;;;12.84;48.60;98103.63;5250467;27;33264;-90
2022/04/08 05:23:12;;;;;;;;;;;;;;;12.53;46.70;98097.25;5251313;27;33857;-86
2022/04/08 05:25:41;;;;;;;;;;;;;;;12.70;46.48;98114.69;5252934;27;34244;-87
2022/04/08 05:28:15;;;;;;;;;;;;;;;12.84;46.16;98114.88;5256407;27;33531;-88
2022/04/08 05:30:49;;;;;;;;;;;;;;;12.64;45.08;98112.38;5253521;27;33477;-89
2022/04/08 05:33:18;;;;;;;;;;;;;;;12.59;44.55;98120.41;5255659;27;34970;-88
2022/04/08 05:35:51;;;;;;;;;;;;;;;12.92;43.08;98123.16;5256271;27;35433;-87
2022/04/08 05:38:22;;;;;;;;;;;;;;;12.84;43.00;98129.66;5255166;27;34856;-89
2022/04/08 05:41:00;;;;;;;;;;;;;;;13.13;41.18;98133.47;5252572;27;33374;-88
2022/04/08 05:43:44;;;;;;;;;;;;;;;12.94;40.85;98149.13;5256581;27;33788;-86
2022/04/08 05:46:16;;;;;;;;;;;;;;;12.78;44.43;98155.06;5253455;27;34226;-88
2022/04/08 05:48:44;;;;;;;;;;;;;;;12.41;46.19;98155.03;5249715;27;34832;-88
2022/04/08 05:51:13;;;;;;;;;;;;;;;12.36;45.35;98147.44;5249985;27;33064;-88
2022/04/08 05:53:59;;;;;;;;;;;;;;;12.25;45.13;98144.47;5251390;27;34224;-88
2022/04/08 05:56:28;;;;;;;;;;;;;;;12.42;44.18;98164.53;5249310;27;35016;-87
2022/04/08 05:59:03;;;;;;;;;;;;;;;12.43;43.75;98180.06;5256994;27;34226;-87
2022/04/08 06:01:31;;;;;;;;;;;;;;;12.72;42.88;98170.94;5249741;27;33970;-90
2022/04/08 06:04:02;;;;;;;;;;;;;;;12.77;42.48;98178.53;5248027;27;34192;-90
2022/04/08 06:06:30;;;;;;;;;;;;;;;12.86;41.61;98192.88;5248841;27;34134;-89
2022/04/08 06:09:05;;;;;;;;;;;;;;;13.00;41.68;98213.91;5248521;27;33326;-89
2022/04/08 06:11:34;;;;;;;;;;;;;;;12.89;41.03;98211.78;5247693;27;34329;-88
2022/04/08 06:14:07;;;;;;;;;;;;;;;12.58;41.08;98231.41;5254060;27;34625;-88
2022/04/08 06:16:38;;;;;;;;;;;;;;;12.96;40.17;98243.59;5249979;27;33970;-89
2022/04/08 06:19:07;;;;;;;;;;;;;;;12.80;39.76;98225.22;5251312;27;34069;-88
2022/04/08 06:21:36;;;;;;;;;;;;;;;12.88;40.30;98233.53;5253211;27;32922;-89
2022/04/08 06:24:07;;;;;;;;;;;;;;;13.07;39.87;98232.69;5250879;27;34012;-89
2022/04/08 06:26:36;;;;;;;;;;;;;;;13.01;39.78;98223.41;5256908;27;34913;-91
2022/04/08 06:29:11;;;;;;;;;;;;;;;13.25;39.89;98239.63;5251693;27;34705;-90
2022/04/08 06:31:46;;;;;;;;;;;;;;;13.14;39.71;98229.72;5250895;27;33120;-88
2022/04/08 06:34:18;;;;;;;;;;;;;;;13.12;39.69;98233.31;5251052;27;35527;-89
2022/04/08 06:36:47;;;;;;;;;;;;;;;13.28;38.88;98230.88;5252580;27;33656;-89
2022/04/08 06:39:18;;;;;;;;;;;;;;;13.36;39.87;98224.38;5256931;27;34758;-91
2022/04/08 06:41:50;;;;;;;;;;;;;;;13.37;38.51;98230.44;5253599;27;33417;-89
2022/04/08 06:44:23;;;;;;;;;;;;;;;13.52;38.88;98226.25;5251193;27;34415;-90
2022/04/08 06:46:53;;;;;;;;;;;;;;;13.47;38.26;98246.47;5250838;27;35532;-89
2022/04/08 06:49:23;;;;;;;;;;;;;;;13.54;37.95;98230.44;5250715;27;34958;-89
2022/04/08 06:51:58;;;;;;;;;;;;;;;13.65;37.54;98236.00;5256751;27;33178;-88
2022/04/08 06:54:26;;;;;;;;;;;;;;;13.75;37.98;98246.81;5250997;27;34248;-89
2022/04/08 06:56:55;;;;;;;;;;;;;;;13.98;36.91;98232.63;5250748;27;33959;-89
2022/04/08 06:59:32;;;;;;;;;;;;;;;13.76;35.89;98232.84;5250472;27;34854;-89
2022/04/08 07:02:01;;;;;;;;;;;;;;;13.64;36.99;98247.31;5250820;27;33290;-88
2022/04/08 07:04:30;;;;;;;;;;;;;;;13.83;37.15;98239.44;5251237;27;34096;-89
2022/04/08 07:07:01;;;;;;;;;;;;;;;14.12;36.86;98236.31;5256675;27;35474;-90
2022/04/08 07:09:32;;;;;;;;;;;;;;;14.00;37.14;98237.75;5250435;27;33928;-89
2022/04/08 07:12:04;;;;;;;;;;;;;;;14.27;37.14;98236.34;5250968;27;33194;-89
2022/04/08 07:14:46;;;;;;;;;;;;;;;14.51;36.68;98226.41;5252806;27;33955;-88
2022/04/08 07:17:17;;;;;;;;;;;;;;;14.24;36.97;98239.13;5231615;27;33383;-88
2022/04/08 07:20:08;;;;;;;;;;;;;;;14.36;35.38;98271.56;5250959;27;34510;-89
2022/04/08 07:22:37;;;;;;;;;;;;;;;14.32;35.67;98256.16;5255500;27;33983;-88
2022/04/08 07:25:13;;;;;;;;;;;;;;;14.22;35.75;98271.41;5250816;27;34088;-88
2022/04/08 07:27:45;;;;;;;;;;;;;;;14.27;35.50;98240.72;5250356;27;35502;-90
2022/04/08 07:30:17;;;;;;;;;;;;;;;14.44;35.66;98258.97;5249862;27;35042;-89
2022/04/08 07:32:48;;;;;;;;;;;;;;;14.45;36.37;98259.81;5252195;27;33478;-88
2022/04/08 07:35:19;;;;;;;;;;;;;;;14.63;36.61;98260.66;5250192;27;33590;-89
2022/04/08 07:37:48;;;;;;;;;;;;;;;14.69;35.19;98265.53;5256199;27;34749;-90
2022/04/08 07:40:17;;;;;;;;;;;;;;;14.85;35.05;98271.63;5250987;27;34136;-88
2022/04/08 07:42:45;;;;;;;;;;;;;;;14.61;34.83;98271.16;5249895;27;33083;-88
2022/04/08 07:45:17;;;;;;;;;;;;;;;14.72;34.21;98275.84;5250762;27;34866;-89
2022/04/08 07:47:47;;;;;;;;;;;;;;;14.78;34.44;98275.50;5249845;27;34039;-88
2022/04/08 07:50:19;;;;;;;;;;;;;;;14.82;33.70;98286.63;5256479;27;33816;-90
2022/04/08 07:52:48;;;;;;;;;;;;;;;14.49;32.27;98279.59;5252665;27;33272;-87
2022/04/08 07:55:20;;;;;;;;;;;;;;;14.48;32.85;98251.81;5250563;27;34566;-88
2022/04/08 07:57:49;;;;;;;;;;;;;;;14.16;31.63;98262.16;5250364;27;33770;-90
2022/04/08 08:00:20;;;;;;;;;;;;;;;14.25;31.32;98246.00;5251007;27;33639;-89
2022/04/08 08:02:51;;;;;;;;;;;;;;;14.04;31.09;98258.41;5252690;27;33011;-88
2022/04/08 08:05:20;;;;;;;;;;;;;;;13.96;31.07;98244.03;5256757;27;33670;-87
2022/04/08 08:07:51;;;;;;;;;;;;;;;13.96;31.64;98270.13;5251860;27;33941;-88
2022/04/08 08:10:20;;;;;;;;;;;;;;;14.02;31.90;98257.63;5253108;27;34854;-90
2022/04/08 08:12:53;;;;;;;;;;;;;;;13.88;31.09;98262.69;5253552;27;33171;-89
2022/04/08 08:15:25;;;;;;;;;;;;;;;13.80;31.33;98259.62;5251425;27;34883;-89
2022/04/08 08:17:57;;;;;;;;;;;;;;;13.65;32.14;98269.88;5256264;27;34727;-90
2022/04/08 08:20:27;;;;;;;;;;;;;;;13.52;32.19;98281.78;5255059;27;34242;-88
2022/04/08 08:22:55;;;;;;;;;;;;;;;14.07;31.79;98297.34;5250922;27;33180;-87
2022/04/08 08:25:28;;;;;;;;;;;;;;;14.07;31.62;98315.59;5250479;27;34285;-88
2022/04/08 08:27:59;;;;;;;;;;;;;;;14.13;31.56;98314.44;5250501;27;33692;-87
2022/04/08 08:30:30;;;;;;;;;;;;;;;14.06;31.85;98324.37;5250099;27;34175;-89
2022/04/08 08:33:04;;;;;;;;;;;;;;;14.23;32.50;98341.78;5256339;27;33535;-90
2022/04/08 08:35:39;;;;;;;;;;;;;;;13.98;32.13;98336.06;5250095;27;35060;-89
2022/04/08 08:38:09;;;;;;;;;;;;;;;14.31;32.13;98346.63;5250370;27;34284;-89
2022/04/08 08:40:40;;;;;;;;;;;;;;;14.55;32.50;98335.91;5249675;27;34527;-89
2022/04/08 08:43:17;;;;;;;;;;;;;;;14.63;31.03;98344.16;5249885;27;33961;-89
2022/04/08 08:45:46;;;;;;;;;;;;;;;14.57;31.63;98347.94;5250094;27;35008;-88
2022/04/08 08:48:30;;;;;;;;;;;;;;;14.35;31.33;98349.91;5255981;27;33962;-88
2022/04/08 08:50:59;;;;;;;;;;;;;;;14.41;31.32;98352.22;5251854;27;33995;-89
2022/04/08 08:53:29;;;;;;;;;;;;;;;14.30;32.11;98363.16;5252360;27;32951;-87
2022/04/08 08:56:01;;;;;;;;;;;;;;;14.56;31.93;98358.44;5255645;27;34731;-88
2022/04/08 08:58:30;;;;;;;;;;;;;;;14.50;31.91;98370.03;5255808;27;34441;-89
2022/04/08 09:01:02;;;;;;;;;;;;;;;14.87;31.53;98371.63;5256170;27;33716;-88
2022/04/08 09:03:33;;;;;;;;;;;;;;;14.28;30.95;98359.81;5256219;27;33392;-90
2022/04/08 09:06:05;;;;;;;;;;;;;;;14.62;31.16;98369.44;5253527;27;34875;-88
2022/04/08 09:08:36;;;;;;;;;;;;;;;14.89;30.42;98366.31;5252069;27;33842;-89
2022/04/08 09:11:06;;;;;;;;;;;;;;;15.22;29.80;98348.03;5250441;27;34744;-87
2022/04/08 09:13:46;;;;;;;;;;;;;;;15.24;29.35;98379.28;5250172;27;33339;-89
2022/04/08 09:16:18;;;;;;;;;;;;;;;15.29;29.02;98354.59;5256483;27;34799;-88
2022/04/08 09:18:49;;;;;;;;;;;;;;;15.47;28.86;98358.00;5255715;27;33406;-87
2022/04/08 09:21:21;;;;;;;;;;;;;;;15.90;28.01;98371.34;5250893;27;34831;-88
2022/04/08 09:23:54;;;;;;;;;;;;;;;15.68;27.29;98374.28;5250311;27;35047;-88
2022/04/08 09:26:34;;;;;;;;;;;;;;;15.51;26.76;98380.44;5250221;27;33228;-88
2022/04/08 09:29:03;;;;;;;;;;;;;;;15.39;27.95;98401.13;5250147;27;34170;-89
2022/04/08 09:31:33;;;;;;;;;;;;;;;15.56;27.86;98401.09;5255986;27;34247;-88
2022/04/08 09:34:18;;;;;;;;;;;;;;;15.71;28.41;98404.69;5256395;27;33659;-88
2022/04/08 09:36:46;;;;;;;;;;;;;;;15.62;26.94;98402.53;5250365;27;33869;-89
2022/04/08 09:39:18;;;;;;;;;;;;;;;16.09;28.35;98404.31;5251271;27;34538;-88
2022/04/08 09:41:49;;;;;;;;;;;;;;;16.61;27.20;98410.03;5254411;27;34322;-90
2022/04/08 09:44:20;;;;;;;;;;;;;;;16.88;26.06;98416.37;5252101;27;33230;-89
2022/04/08 09:46:49;;;;;;;;;;;;;;;16.67;26.36;98419.28;5256281;27;33809;-90
2022/04/08 09:49:21;;;;;;;;;;;;;;;16.52;25.93;98394.84;5251774;27;34159;-89
2022/04/08 09:51:50;;;;;;;;;;;;;;;16.31;26.31;98393.47;5248905;27;34099;-88
2022/04/08 09:54:20;;;;;;;;;;;;;;;16.24;26.71;98407.81;5249101;27;32517;-90
2022/04/08 09:56:49;;;;;;;;;;;;;;;16.25;26.66;98412.16;5247727;27;34626;-89
2022/04/08 09:59:22;;;;;;;;;;;;;;;16.36;26.73;98399.31;5248497;27;33586;-88
2022/04/08 10:02:16;;;;;;;;;;;;;;;16.59;26.84;98411.88;5255222;27;33808;-88
2022/04/08 10:04:57;;;;;;;;;;;;;;;16.29;26.39;98418.91;5257014;27;34075;-88
2022/04/08 10:07:27;;;;;;;;;;;;;;;16.17;26.58;98408.19;5250206;27;34835;-88
2022/04/08 10:10:01;;;;;;;;;;;;;;;16.39;27.07;98409.59;5250926;27;33964;-88
2022/04/08 10:12:33;;;;;;;;;;;;;;;16.42;26.27;98410.25;5250722;27;33591;-89
2022/04/08 10:15:05;;;;;;;;;;;;;;;16.15;26.77;98406.59;5250712;27;33413;-89
2022/04/08 10:17:35;;;;;;;;;;;;;;;16.46;27.51;98412.69;5256899;27;34311;-89
2022/04/08 10:20:18;;;;;;;;;;;;;;;16.33;27.34;98410.78;5255934;27;33786;-90
2022/04/08 10:22:47;;;;;;;;;;;;;;;16.71;26.51;98414.72;5252617;27;34184;-88
2022/04/08 10:25:21;;;;;;;;;;;;;;;17.09;27.34;98414.25;5250879;27;33713;-90
2022/04/08 10:27:50;;;;;;;;;;;;;;;17.47;26.33;98422.41;5250442;27;33929;-89
2022/04/08 10:30:29;;;;;;;;;;;;;;;17.30;25.07;98412.97;5249382;27;34293;-88
2022/04/08 10:33:00;;;;;;;;;;;;;;;17.13;25.44;98431.47;5251962;27;34899;-89
2022/04/08 10:35:30;;;;;;;;;;;;;;;17.02;25.44;98413.78;5253249;27;32894;-89
2022/04/08 10:38:00;;;;;;;;;;;;;;;17.11;25.68;98420.25;5247674;27;35579;-89
2022/04/08 10:40:30;;;;;;;;;;;;;;;17.40;24.95;98421.94;5247699;27;33361;-89
2022/04/08 10:43:00;;;;;;;;;;;;;;;17.24;25.00;98403.69;5246551;27;33976;-88
2022/04/08 10:45:30;;;;;;;;;;;;;;;17.31;25.08;98408.56;5247512;27;33770;-88
2022/04/08 10:48:03;;;;;;;;;;;;;;;17.29;24.79;98400.78;5253079;27;34673;-87
2022/04/08 10:50:34;;;;;;;;;;;;;;;17.34;24.56;98414.44;5246945;27;33543;-90
2022/04/08 10:53:03;;;;;;;;;;;;;;;17.26;24.77;98406.22;5246905;27;34231;-90
2022/04/08 10:55:32;;;;;;;;;;;;;;;17.37;25.60;98408.16;5247183;27;33066;-90
2022/04/08 10:58:03;;;;;;;;;;;;;;;17.53;25.05;98408.91;5246910;27;33731;-89
2022/04/08 11:00:39;;;;;;;;;;;;;;;17.68;25.06;98413.19;5249312;27;34164;-90
2022/04/08 11:03:10;;;;;;;;;;;;;;;17.44;25.50;98426.03;5254680;27;34038;-89
2022/04/08 11:05:40;;;;;;;;;;;;;;;17.13;25.78;98407.87;5248681;27;32906;-88
2022/04/08 11:08:08;;;;;;;;;;;;;;;17.13;25.97;98413.13;5248217;27;33712;-90
2022/04/08 11:10:37;;;;;;;;;;;;;;;17.59;26.17;98415.53;5249367;27;34054;-90
2022/04/08 11:13:09;;;;;;;;;;;;;;;17.96;26.02;98411.50;5248444;27;33816;-92
2022/04/08 11:15:38;;;;;;;;;;;;;;;18.23;26.47;98416.75;5236247;27;33375;-93
2022/04/08 11:18:31;;;;;;;;;;;;;;;18.34;25.41;98413.44;5234365;27;33138;-92
2022/04/08 11:24:27;;;;;;;;;;;;;;;18.03;26.55;98423.28;5250707;27;33913;-94
2022/04/08 11:27:37;;;;;;;;;;;;;;;17.91;26.73;98438.03;5247196;27;33513;-93
2022/04/08 11:30:20;;;;;;;;;;;;;;;17.23;27.90;98432.63;5230730;27;33047;-93
2022/04/08 11:33:03;;;;;;;;;;;;;;;17.60;27.30;98435.59;5231520;27;33256;-94
2022/04/08 11:39:30;;;;;;;;;;;;;;;18.19;28.31;98432.78;5153737;27;33320;-94
2022/04/08 11:45:51;;;;;;;;;;;;;;;18.06;28.60;98428.31;5162900;27;34374;-93
2022/04/08 11:48:49;;;;;;;;;;;;;;;18.63;27.17;98437.78;5162675;27;33767;-91
2022/04/08 12:04:59;;;;;;;;;;;;;;;19.01;27.42;98415.97;5132262;27;33398;-93
2022/04/08 12:31:24;;;;;;;;;;;;;;;19.98;28.40;98367.97;4969069;28;20049;-90
2022/04/08 12:37:48;;;;;;;;;;;;;;;20.36;28.33;98360.81;5000508;28;33547;-90
2022/04/08 12:40:25;;;;;;;;;;;;;;;20.48;28.27;98361.69;4983242;28;32461;-92
2022/04/08 12:43:13;;;;;;;;;;;;;;;20.52;27.79;98357.88;4978553;28;32146;-92
2022/04/08 12:45:53;;;;;;;;;;;;;;;20.35;27.88;98351.25;5037733;28;34668;-93
2022/04/08 12:48:24;;;;;;;;;;;;;;;20.50;28.41;98318.47;5024958;28;32865;-92
2022/04/08 12:50:58;;;;;;;;;;;;;;;20.78;27.69;98319.88;5027469;28;32650;-92
2022/04/08 12:53:31;;;;;;;;;;;;;;;20.77;27.88;98335.81;5082305;28;31971;-91
2022/04/08 12:56:09;;;;;;;;;;;;;;;20.46;28.68;98338.97;5096183;27;33886;-92
2022/04/08 13:01:33;;;;;;;;;;;;;;;20.31;28.55;98334.00;5209963;27;34824;-94
2022/04/08 13:04:07;;;;;;;;;;;;;;;20.18;28.42;98345.44;5187025;27;32415;-91
2022/04/08 13:06:39;;;;;;;;;;;;;;;20.18;28.67;98337.53;5190740;27;32892;-91
2022/04/08 13:09:16;;;;;;;;;;;;;;;20.50;28.83;98334.28;5206174;27;34286;-91
2022/04/08 13:12:16;;;;;;;;;;;;;;;20.51;28.48;98330.69;5189860;27;34645;-92
2022/04/08 13:14:47;;;;;;;;;;;;;;;20.79;28.96;98313.62;5206220;27;32953;-92
2022/04/08 13:29:37;;;;;;;;;;;;;;;21.10;27.91;98277.81;5226810;27;33524;-91
2022/04/08 13:32:18;;;;;;;;;;;;;;;21.08;28.85;98269.19;5249310;27;35111;-92
2022/04/08 13:37:58;;;;;;;;;;;;;;;20.99;28.24;98272.53;5251978;27;33376;-95
2022/04/08 13:40:56;;;;;;;;;;;;;;;20.80;28.13;98249.44;5253931;27;32564;-93
2022/04/08 13:43:53;;;;;;;;;;;;;;;20.53;28.73;98247.09;5255216;27;34443;-93
2022/04/08 13:47:20;;;;;;;;;;;;;;;20.42;28.92;98261.13;5205100;27;34147;-93
2022/04/08 13:49:51;;;;;;;;;;;;;;;20.57;29.32;98266.19;5235423;27;31745;-91
2022/04/08 13:53:18;;;;;;;;;;;;;;;20.52;29.69;98255.16;5230679;27;32569;-93
2022/04/08 13:59:28;;;;;;;;;;;;;;;20.40;29.36;98254.28;5221664;27;36553;-91
2022/04/08 14:05:24;;;;;;;;;;;;;;;20.40;29.79;98243.75;5234408;27;33395;-93
2022/04/08 14:08:18;;;;;;;;;;;;;;;20.41;29.79;98235.72;5234116;27;33512;-95
2022/04/08 14:11:04;;;;;;;;;;;;;;;20.40;30.13;98234.03;5248779;27;34518;-91
2022/04/08 14:13:50;;;;;;;;;;;;;;;20.18;30.96;98226.13;5212239;27;35492;-92
2022/04/08 14:16:33;;;;;;;;;;;;;;;20.31;30.83;98220.75;5230172;27;34951;-96
2022/04/08 14:19:28;;;;;;;;;;;;;;;20.25;31.43;98211.53;5249308;27;34916;-92
2022/04/08 14:25:40;;;;;;;;;;;;;;;20.09;31.51;98190.78;5206984;27;33074;-94
2022/04/08 14:28:37;;;;;;;;;;;;;;;19.57;32.40;98184.12;5206389;27;33925;-91
2022/04/08 14:31:38;;;;;;;;;;;;;;;19.86;32.74;98175.88;5206747;27;35045;-92
2022/04/08 14:35:34;;;;;;;;;;;;;;;19.82;32.41;98186.66;5182364;27;34266;-92
2022/04/08 14:50:24;;;;;;;;;;;;;;;19.57;34.92;98142.91;5062859;28;35114;-92
2022/04/08 14:52:53;;;;;;;;;;;;;;;19.52;35.47;98142.41;5080906;28;33626;-91
2022/04/08 15:11:18;;;;;;;;;;;;;;;19.28;37.50;98095.13;4936333;29;34976;-92